Time;durP1;ratioP1;P1;durP2;ratioP2;P2;SDS_P1;SDS_P2;PMS_P1;PMS_P2;Temp;Humidity;BMP_temperature;BMP_pressure;BME280_temperature;BME280_humidity;BME280_pressure;Samples;Min_cycle;Max_cycle;Signal;HPM_P1;HPM_P2
2022/04/05 00:00:43;;;;;;;7.82;1.58;;;14.40;69.60;;;;;;3927858;30;20747;-66
2022/04/05 00:03:06;;;;;;;7.65;2.03;;;14.40;69.60;;;;;;3914197;30;20494;-67
2022/04/05 00:05:28;;;;;;;9.07;1.65;;;14.40;69.70;;;;;;3926909;30;20094;-66
2022/04/05 00:07:50;;;;;;;5.85;1.30;;;14.40;69.80;;;;;;3927862;30;20064;-66
2022/04/05 00:10:12;;;;;;;7.38;1.58;;;14.30;69.70;;;;;;3927288;30;20056;-66
2022/04/05 00:12:34;;;;;;;4.47;1.50;;;14.40;69.80;;;;;;3927456;30;20059;-65
2022/04/05 00:14:56;;;;;;;8.43;1.38;;;14.30;69.80;;;;;;3925601;30;20528;-65
2022/04/05 00:17:20;;;;;;;7.05;1.33;;;14.30;69.90;;;;;;3927354;30;20048;-66
2022/04/05 00:19:42;;;;;;;8.65;1.73;;;14.30;70.00;;;;;;3927064;30;20152;-66
2022/04/05 00:22:04;;;;;;;11.63;1.65;;;14.30;70.00;;;;;;3913942;30;20057;-66
2022/04/05 00:24:27;;;;;;;6.95;1.77;;;14.30;70.00;;;;;;3926572;30;20138;-66
2022/04/05 00:26:49;;;;;;;10.75;1.60;;;14.30;70.00;;;;;;3926904;30;20141;-66
2022/04/05 00:29:11;;;;;;;11.57;2.03;;;14.30;70.00;;;;;;3926614;30;20053;-66
2022/04/05 00:31:33;;;;;;;10.00;1.85;;;14.30;70.00;;;;;;3927255;30;20048;-65
2022/04/05 00:33:56;;;;;;;5.13;1.70;;;14.20;70.00;;;;;;3927213;30;20059;-65
2022/04/05 00:36:18;;;;;;;13.60;2.30;;;14.20;70.00;;;;;;3926845;30;20135;-65
2022/04/05 00:38:40;;;;;;;11.80;2.05;;;14.20;70.10;;;;;;3926348;30;20059;-65
2022/04/05 00:41:03;;;;;;;12.77;2.47;;;14.20;70.20;;;;;;3926536;30;20059;-65
2022/04/05 00:43:25;;;;;;;16.40;2.00;;;14.20;70.20;;;;;;3926863;30;20151;-66
2022/04/05 00:45:47;;;;;;;11.63;2.30;;;14.20;70.20;;;;;;3926099;30;20393;-65
2022/04/05 00:48:09;;;;;;;11.35;1.88;;;14.20;70.30;;;;;;3926431;30;20047;-65
2022/04/05 00:50:35;;;;;;;11.48;2.42;;;14.20;70.20;;;;;;3926907;30;20052;-66
2022/04/05 00:52:58;;;;;;;7.70;1.92;;;14.20;70.10;;;;;;3926252;30;20063;-66
2022/04/05 00:55:22;;;;;;;10.88;2.13;;;14.20;70.20;;;;;;3925792;30;20067;-67
2022/04/05 00:57:46;;;;;;;13.18;2.83;;;14.20;70.30;;;;;;3926332;30;20070;-66
2022/04/05 01:00:09;;;;;;;12.65;2.05;;;14.20;70.40;;;;;;3926657;30;20060;-66
2022/04/05 01:02:37;;;;;;;10.85;2.30;;;14.20;70.40;;;;;;3912154;30;20529;-66
2022/04/05 01:05:00;;;;;;;11.90;1.90;;;14.20;70.40;;;;;;3926535;30;20102;-66
2022/04/05 01:07:25;;;;;;;16.35;2.30;;;14.20;70.50;;;;;;3925410;30;20515;-66
2022/04/05 01:09:47;;;;;;;14.70;2.60;;;14.10;70.30;;;;;;3926712;30;20067;-66
2022/04/05 01:12:14;;;;;;;12.80;2.20;;;14.10;70.40;;;;;;3926499;30;20059;-66
2022/04/05 01:14:37;;;;;;;16.05;2.47;;;14.10;70.40;;;;;;3926414;30;20480;-66
2022/04/05 01:16:59;;;;;;;11.40;3.50;;;14.10;70.20;;;;;;3927156;30;20055;-65
2022/04/05 01:19:21;;;;;;;14.85;2.13;;;14.10;70.30;;;;;;3925263;30;20060;-65
2022/04/05 01:21:43;;;;;;;11.05;2.03;;;14.10;70.30;;;;;;3913483;30;20048;-65
2022/04/05 01:24:10;;;;;;;9.57;1.98;;;14.10;70.30;;;;;;3926199;30;20535;-65
2022/04/05 01:26:41;;;;;;;16.67;2.40;;;14.10;70.40;;;;;;3926651;30;20075;-66
2022/04/05 01:29:04;;;;;;;11.93;1.80;;;14.10;70.30;;;;;;3926393;30;20576;-65
2022/04/05 01:31:26;;;;;;;8.90;1.80;;;14.10;70.50;;;;;;3926588;30;20056;-65
2022/04/05 01:33:48;;;;;;;14.50;3.10;;;14.10;70.40;;;;;;3925497;30;20056;-66
2022/04/05 01:36:21;;;;;;;8.65;2.28;;;14.10;70.40;;;;;;3926202;30;20060;-67
2022/04/05 01:38:43;;;;;;;13.50;2.33;;;14.10;70.40;;;;;;3912862;30;20067;-66
2022/04/05 01:41:07;;;;;;;9.07;1.60;;;14.10;70.40;;;;;;3926575;30;20545;-65
2022/04/05 01:43:29;;;;;;;11.77;1.50;;;14.10;70.30;;;;;;3911775;30;20056;-65
2022/04/05 01:45:51;;;;;;;9.82;2.33;;;14.10;70.30;;;;;;3911139;30;20103;-65
2022/04/05 01:48:15;;;;;;;14.98;2.20;;;14.10;70.30;;;;;;3922952;30;20060;-65
2022/04/05 01:50:38;;;;;;;7.43;1.50;;;14.00;70.20;;;;;;3926321;30;20064;-65
2022/04/05 01:53:00;;;;;;;8.60;2.13;;;14.10;70.30;;;;;;3912474;30;20060;-65
2022/04/05 01:55:22;;;;;;;4.68;1.48;;;14.10;70.30;;;;;;3926549;30;20450;-66
2022/04/05 01:57:46;;;;;;;15.60;1.65;;;14.10;70.20;;;;;;3926242;30;20570;-66
2022/04/05 02:00:14;;;;;;;13.55;1.77;;;14.10;70.30;;;;;;3926356;30;20066;-66
2022/04/05 02:02:36;;;;;;;11.15;1.67;;;14.00;70.30;;;;;;3926497;30;20469;-66
2022/04/05 02:04:58;;;;;;;10.73;1.98;;;14.10;70.40;;;;;;3924483;30;20068;-66
2022/04/05 02:07:21;;;;;;;5.18;1.50;;;14.00;70.30;;;;;;3926797;30;20067;-66
2022/04/05 02:09:43;;;;;;;13.48;1.50;;;14.00;70.40;;;;;;3928926;30;20044;-66
2022/04/05 02:12:07;;;;;;;8.52;1.42;;;14.00;71.30;;;;;;3929434;30;20060;-66
2022/04/05 02:14:59;;;;;;;10.80;1.92;;;14.00;70.50;;;;;;3912931;30;20056;-66
2022/04/05 02:17:38;;;;;;;12.23;2.08;;;14.00;70.50;;;;;;3913392;30;20225;-66
2022/04/05 02:20:01;;;;;;;12.05;2.58;;;14.00;70.50;;;;;;3917255;30;20066;-66
2022/04/05 02:22:25;;;;;;;7.70;1.85;;;14.00;70.50;;;;;;3912561;30;20070;-66
2022/04/05 02:24:52;;;;;;;11.05;1.58;;;14.00;70.40;;;;;;3927536;30;20068;-66
2022/04/05 02:27:21;;;;;;;8.38;1.20;;;14.00;70.60;;;;;;3927397;30;20060;-66
2022/04/05 02:29:46;;;;;;;8.27;1.48;;;14.00;70.50;;;;;;3915701;30;20110;-66
2022/04/05 02:32:16;;;;;;;13.63;2.70;;;14.00;70.50;;;;;;3927487;30;20662;-66
2022/04/05 02:34:39;;;;;;;8.85;2.03;;;14.00;70.60;;;;;;3927795;30;20131;-66
2022/04/05 02:37:02;;;;;;;10.05;2.17;;;14.00;70.60;;;;;;3928099;30;20064;-65
2022/04/05 02:39:25;;;;;;;11.77;1.65;;;14.00;70.60;;;;;;3927289;30;20090;-66
2022/04/05 02:41:52;;;;;;;8.55;1.38;;;14.00;70.60;;;;;;3925980;30;20423;-66
2022/04/05 02:44:16;;;;;;;15.02;2.10;;;14.00;70.70;;;;;;3928745;30;20133;-66
2022/04/05 02:46:39;;;;;;;10.75;1.73;;;14.00;70.60;;;;;;3927327;30;20412;-66
2022/04/05 02:49:03;;;;;;;10.93;1.83;;;14.00;70.60;;;;;;3927968;30;20133;-65
2022/04/05 02:51:29;;;;;;;13.30;2.20;;;14.00;70.60;;;;;;3920066;30;20166;-65
2022/04/05 02:53:55;;;;;;;10.90;1.58;;;14.00;70.70;;;;;;3913095;30;20057;-66
2022/04/05 02:56:18;;;;;;;12.85;1.80;;;14.00;70.60;;;;;;3912715;30;20122;-66
2022/04/05 02:58:43;;;;;;;10.30;1.67;;;14.00;70.70;;;;;;3912354;30;20056;-66
2022/04/05 03:01:05;;;;;;;14.55;1.67;;;14.00;70.80;;;;;;3924190;30;20097;-65
2022/04/05 03:03:29;;;;;;;11.18;1.50;;;14.00;70.90;;;;;;3928118;30;20500;-65
2022/04/05 03:05:52;;;;;;;9.90;1.73;;;14.00;70.80;;;;;;3914984;30;20449;-65
2022/04/05 03:08:16;;;;;;;6.03;1.85;;;14.00;70.80;;;;;;3928563;30;20070;-65
2022/04/05 03:10:39;;;;;;;12.73;2.00;;;14.00;71.80;;;;;;3927484;30;20048;-65
2022/04/05 03:13:03;;;;;;;5.82;1.65;;;14.00;70.90;;;;;;3915313;30;20458;-65
2022/04/05 03:15:26;;;;;;;11.82;1.73;;;14.00;71.00;;;;;;3928469;30;20060;-65
2022/04/05 03:17:50;;;;;;;11.50;1.60;;;14.00;71.80;;;;;;3925882;30;20497;-66
2022/04/05 03:20:16;;;;;;;9.23;1.80;;;13.90;70.90;;;;;;3922781;30;20064;-66
2022/04/05 03:22:44;;;;;;;12.30;2.63;;;13.90;70.90;;;;;;3925718;30;20048;-66
2022/04/05 03:25:07;;;;;;;8.77;1.80;;;13.90;71.00;;;;;;3926389;30;20143;-66
2022/04/05 03:27:29;;;;;;;11.68;1.83;;;13.90;71.00;;;;;;3913344;30;20060;-66
2022/04/05 03:29:52;;;;;;;11.50;1.85;;;13.90;71.10;;;;;;3928287;30;20055;-66
2022/04/05 03:32:15;;;;;;;10.13;2.38;;;13.90;71.10;;;;;;3914457;30;20428;-66
2022/04/05 03:34:37;;;;;;;11.55;1.98;;;13.90;71.10;;;;;;3927633;30;20063;-66
2022/04/05 03:37:00;;;;;;;11.25;1.98;;;13.90;71.10;;;;;;3924750;30;20077;-65
2022/04/05 03:39:25;;;;;;;12.85;2.13;;;13.90;71.00;;;;;;3925320;30;20068;-66
2022/04/05 03:41:49;;;;;;;13.02;1.90;;;13.90;71.10;;;;;;3927368;30;20159;-65
2022/04/05 03:44:15;;;;;;;14.43;2.55;;;13.90;71.20;;;;;;3927958;30;20488;-66
2022/04/05 03:46:40;;;;;;;19.50;2.38;;;13.90;71.20;;;;;;3928125;30;20064;-66
2022/04/05 03:49:03;;;;;;;10.18;2.22;;;13.90;71.20;;;;;;3914544;30;20607;-66
2022/04/05 03:51:25;;;;;;;9.88;2.17;;;13.90;71.30;;;;;;3939748;30;20059;-66
2022/04/05 03:53:52;;;;;;;18.25;3.20;;;13.90;71.30;;;;;;3912210;30;20106;-66
2022/04/05 03:56:16;;;;;;;13.20;2.22;;;13.90;71.40;;;;;;3912483;30;20411;-66
2022/04/05 03:58:38;;;;;;;10.02;2.00;;;13.90;71.40;;;;;;3929619;30;20118;-67
2022/04/05 04:01:00;;;;;;;15.02;2.55;;;13.90;71.40;;;;;;3927651;30;20075;-67
2022/04/05 04:03:25;;;;;;;10.70;2.28;;;13.90;71.30;;;;;;3928000;30;20567;-67
2022/04/05 04:05:48;;;;;;;12.77;2.35;;;13.90;71.40;;;;;;3927173;30;20109;-67
2022/04/05 04:08:11;;;;;;;11.98;1.80;;;13.90;71.40;;;;;;3936510;30;20060;-66
2022/04/05 04:10:34;;;;;;;11.88;2.00;;;13.90;71.40;;;;;;3914330;30;20135;-66
2022/04/05 04:12:59;;;;;;;10.15;1.65;;;13.80;71.50;;;;;;3926250;30;20481;-66
2022/04/05 04:15:28;;;;;;;14.55;2.10;;;13.80;71.40;;;;;;3926718;30;20552;-67
2022/04/05 04:17:50;;;;;;;10.75;1.80;;;13.80;71.40;;;;;;3926922;30;20076;-66
2022/04/05 04:20:13;;;;;;;12.43;1.50;;;13.80;71.40;;;;;;3913349;30;20533;-66
2022/04/05 04:22:36;;;;;;;9.63;1.52;;;13.80;72.30;;;;;;3914140;30;20056;-66
2022/04/05 04:24:59;;;;;;;15.35;2.10;;;13.80;71.50;;;;;;3913960;30;20052;-66
2022/04/05 04:27:22;;;;;;;12.88;2.38;;;13.80;71.50;;;;;;3926080;30;20512;-66
2022/04/05 04:29:46;;;;;;;8.07;1.67;;;13.80;71.60;;;;;;3927293;30;20056;-66
2022/04/05 04:32:08;;;;;;;7.88;1.27;;;13.80;71.70;;;;;;3915000;30;20420;-66
2022/04/05 04:34:30;;;;;;;8.88;2.28;;;13.80;71.70;;;;;;3927646;30;20528;-67
2022/04/05 04:36:53;;;;;;;14.77;2.33;;;13.80;71.70;;;;;;3938276;29;20138;-67
2022/04/05 04:39:16;;;;;;;9.10;1.58;;;13.80;71.60;;;;;;3926580;30;20106;-67
2022/04/05 04:41:39;;;;;;;13.50;2.28;;;13.80;71.50;;;;;;3926470;30;20055;-66
2022/04/05 04:44:01;;;;;;;10.40;1.58;;;13.80;71.60;;;;;;3926402;30;20052;-66
2022/04/05 04:46:24;;;;;;;11.60;1.90;;;13.80;71.50;;;;;;3913929;30;20095;-66
2022/04/05 04:48:47;;;;;;;14.93;2.53;;;13.80;71.70;;;;;;3912481;30;20080;-67
2022/04/05 04:51:09;;;;;;;10.15;1.90;;;13.80;71.70;;;;;;3912421;30;20059;-67
2022/04/05 04:53:32;;;;;;;10.82;2.25;;;13.80;71.70;;;;;;3912637;30;20055;-67
2022/04/05 04:55:54;;;;;;;11.07;1.35;;;13.80;71.80;;;;;;3914495;30;20137;-67
2022/04/05 04:58:25;;;;;;;12.45;2.15;;;13.80;71.70;;;;;;3937900;30;20059;-66
2022/04/05 05:00:48;;;;;;;15.88;2.55;;;13.80;71.80;;;;;;3927177;30;20528;-66
2022/04/05 05:03:12;;;;;;;11.82;2.05;;;13.80;71.90;;;;;;3926319;30;20135;-66
2022/04/05 05:05:35;;;;;;;10.70;2.28;;;13.80;71.90;;;;;;3926700;30;20214;-67
2022/04/05 05:07:56;;;;;;;9.02;1.77;;;13.70;71.90;;;;;;3912501;30;20079;-66
2022/04/05 05:10:19;;;;;;;8.52;1.95;;;13.80;71.90;;;;;;3912454;30;20522;-66
2022/04/05 05:12:41;;;;;;;12.95;1.80;;;13.80;72.00;;;;;;3912236;30;20569;-66
2022/04/05 05:15:04;;;;;;;15.18;2.20;;;13.70;72.00;;;;;;3923655;30;20569;-66
2022/04/05 05:17:26;;;;;;;13.32;2.05;;;13.70;72.00;;;;;;3927090;30;20416;-66
2022/04/05 05:19:50;;;;;;;8.35;1.95;;;13.70;72.10;;;;;;3927020;30;20052;-67
2022/04/05 05:22:12;;;;;;;9.55;2.63;;;13.70;72.10;;;;;;3926955;30;20064;-66
2022/04/05 05:24:35;;;;;;;12.30;2.55;;;13.70;72.10;;;;;;3926790;29;20137;-66
2022/04/05 05:26:57;;;;;;;13.95;2.10;;;13.70;72.10;;;;;;3926447;30;20495;-66
2022/04/05 05:29:19;;;;;;;7.20;1.77;;;13.70;72.10;;;;;;3926591;30;20056;-66
2022/04/05 05:31:41;;;;;;;14.65;2.15;;;13.70;72.10;;;;;;3926361;30;20066;-67
2022/04/05 05:34:03;;;;;;;14.65;2.08;;;13.70;72.10;;;;;;3926080;30;20053;-66
2022/04/05 05:36:27;;;;;;;9.85;2.22;;;13.70;72.10;;;;;;3911736;30;20477;-66
2022/04/05 05:38:49;;;;;;;9.68;1.90;;;13.70;72.10;;;;;;3912315;30;20084;-66
2022/04/05 05:41:11;;;;;;;5.32;1.63;;;13.70;72.10;;;;;;3912368;30;20053;-66
2022/04/05 05:43:34;;;;;;;15.55;2.35;;;13.70;72.10;;;;;;3914562;30;20064;-66
2022/04/05 05:45:56;;;;;;;10.82;2.00;;;13.70;72.20;;;;;;3900867;30;20508;-66
2022/04/05 05:48:19;;;;;;;10.10;1.85;;;13.70;72.30;;;;;;3920720;30;20052;-66
2022/04/05 05:50:41;;;;;;;13.32;2.28;;;13.70;72.20;;;;;;3929321;30;20067;-66
2022/04/05 05:53:05;;;;;;;12.85;2.35;;;13.70;72.30;;;;;;3929759;30;20404;-66
2022/04/05 05:55:27;;;;;;;9.30;1.95;;;13.70;72.30;;;;;;3917018;30;20074;-66
2022/04/05 05:57:50;;;;;;;12.43;2.50;;;13.70;72.30;;;;;;3914905;30;20110;-67
2022/04/05 06:00:17;;;;;;;10.00;2.33;;;13.70;72.40;;;;;;3914658;30;20061;-66
2022/04/05 06:02:40;;;;;;;11.57;1.85;;;13.70;72.40;;;;;;3915153;30;20056;-66
2022/04/05 06:05:02;;;;;;;12.90;1.90;;;13.70;72.60;;;;;;3915369;30;20199;-66
2022/04/05 06:07:24;;;;;;;9.30;2.25;;;13.70;73.00;;;;;;3914609;30;20060;-66
2022/04/05 06:09:48;;;;;;;15.45;2.60;;;13.80;74.20;;;;;;3922688;30;20066;-66
2022/04/05 06:12:10;;;;;;;11.50;2.60;;;13.80;73.20;;;;;;3923045;30;20063;-66
2022/04/05 06:14:32;;;;;;;11.90;1.88;;;13.80;73.20;;;;;;3900095;30;20061;-66
2022/04/05 06:16:54;;;;;;;11.98;2.22;;;13.80;73.00;;;;;;3905670;30;20053;-66
2022/04/05 06:19:17;;;;;;;15.93;2.90;;;13.80;73.00;;;;;;3914383;30;20316;-65
2022/04/05 06:21:39;;;;;;;14.27;2.17;;;13.80;73.00;;;;;;3914192;30;20060;-65
2022/04/05 06:24:01;;;;;;;18.30;2.53;;;13.80;73.10;;;;;;3914042;30;20119;-65
2022/04/05 06:26:24;;;;;;;17.63;3.97;;;13.80;73.20;;;;;;3914781;30;20072;-64
2022/04/05 06:28:46;;;;;;;12.50;2.30;;;13.80;73.20;;;;;;3913308;30;20056;-65
2022/04/05 06:31:09;;;;;;;10.98;2.58;;;13.80;73.20;;;;;;3913537;30;20056;-65
2022/04/05 06:33:31;;;;;;;11.27;1.92;;;13.70;73.00;;;;;;3926825;30;20106;-64
2022/04/05 06:35:56;;;;;;;12.65;2.40;;;13.70;73.00;;;;;;3928672;30;20087;-64
2022/04/05 06:38:18;;;;;;;11.57;2.17;;;13.80;73.10;;;;;;3917770;30;20203;-64
2022/04/05 06:40:43;;;;;;;15.93;2.22;;;13.70;73.00;;;;;;3928536;30;20139;-64
2022/04/05 06:43:06;;;;;;;13.68;2.03;;;13.70;73.10;;;;;;3928635;30;20063;-65
2022/04/05 06:45:28;;;;;;;10.18;2.33;;;13.70;73.10;;;;;;3928754;30;20418;-64
2022/04/05 06:47:51;;;;;;;10.55;2.47;;;13.70;73.30;;;;;;3937665;30;20052;-64
2022/04/05 06:50:17;;;;;;;11.30;2.25;;;13.70;73.30;;;;;;3929676;30;20087;-64
2022/04/05 06:52:42;;;;;;;13.88;2.20;;;13.70;73.30;;;;;;3928423;30;20082;-64
2022/04/05 06:55:04;;;;;;;15.15;2.67;;;13.70;73.30;;;;;;3928084;30;20500;-64
2022/04/05 06:57:26;;;;;;;13.00;2.08;;;13.70;73.30;;;;;;3928725;30;20070;-63
2022/04/05 06:59:52;;;;;;;9.27;2.03;;;13.70;74.10;;;;;;3927933;30;20040;-64
2022/04/05 07:02:14;;;;;;;9.88;2.65;;;13.70;73.30;;;;;;3928438;30;20051;-64
2022/04/05 07:04:36;;;;;;;8.65;1.67;;;13.70;73.30;;;;;;3928074;30;20060;-64
2022/04/05 07:06:59;;;;;;;14.65;2.33;;;13.70;73.30;;;;;;3909444;30;20137;-65
2022/04/05 07:09:22;;;;;;;13.05;2.45;;;13.70;73.30;;;;;;3928491;30;20056;-65
2022/04/05 07:11:45;;;;;;;15.70;2.22;;;13.70;73.30;;;;;;3928622;30;20113;-65
2022/04/05 07:14:08;;;;;;;11.23;2.13;;;13.70;73.30;;;;;;3928343;30;20056;-66
2022/04/05 07:16:31;;;;;;;12.48;1.98;;;13.70;73.40;;;;;;3913557;30;20432;-66
2022/04/05 07:18:57;;;;;;;14.27;2.78;;;13.70;73.40;;;;;;3913424;30;20058;-65
2022/04/05 07:21:20;;;;;;;13.25;1.90;;;13.70;73.40;;;;;;3913183;30;20148;-65
2022/04/05 07:23:44;;;;;;;9.55;2.45;;;13.70;73.40;;;;;;3920446;30;20056;-66
2022/04/05 07:26:08;;;;;;;12.32;2.40;;;13.70;73.40;;;;;;3927539;30;20144;-65
2022/04/05 07:28:30;;;;;;;9.93;2.15;;;13.70;73.40;;;;;;3927273;30;20070;-63
2022/04/05 07:30:53;;;;;;;10.25;1.70;;;13.70;73.70;;;;;;3927185;30;20052;-64
2022/04/05 07:33:17;;;;;;;8.48;1.95;;;13.70;75.00;;;;;;3914101;30;20366;-64
2022/04/05 07:35:40;;;;;;;13.43;2.15;;;13.80;73.90;;;;;;3928125;30;20795;-63
2022/04/05 07:38:02;;;;;;;8.98;1.77;;;13.80;74.40;;;;;;3928525;30;20095;-63
2022/04/05 07:40:27;;;;;;;10.93;2.17;;;13.80;73.50;;;;;;3913928;30;20118;-63
2022/04/05 07:42:50;;;;;;;16.55;2.60;;;13.80;73.50;;;;;;3927793;30;20397;-66
2022/04/05 07:45:13;;;;;;;10.48;2.13;;;13.80;73.60;;;;;;3913067;30;20159;-65
2022/04/05 07:47:35;;;;;;;11.85;2.08;;;13.80;73.50;;;;;;3920833;30;20083;-66
2022/04/05 07:49:59;;;;;;;8.48;2.08;;;13.80;73.60;;;;;;3910762;30;20154;-66
2022/04/05 07:52:21;;;;;;;11.55;1.65;;;13.70;73.70;;;;;;3913214;30;20083;-65
2022/04/05 07:54:44;;;;;;;15.23;3.28;;;13.70;73.90;;;;;;3906865;30;20063;-66
2022/04/05 07:57:08;;;;;;;11.07;1.65;;;13.80;74.00;;;;;;3912939;30;20068;-66
2022/04/05 07:59:33;;;;;;;6.68;1.55;;;13.70;74.00;;;;;;3915752;30;20060;-65
2022/04/05 08:01:55;;;;;;;8.93;1.63;;;13.70;74.00;;;;;;3924676;30;20105;-65
2022/04/05 08:04:35;;;;;;;7.47;1.52;;;13.70;74.00;;;;;;3928487;30;20074;-65
2022/04/05 08:06:58;;;;;;;8.57;2.00;;;13.70;74.00;;;;;;3923922;30;20139;-66
2022/04/05 08:09:21;;;;;;;6.57;1.30;;;13.70;74.00;;;;;;3923621;30;20049;-65
2022/04/05 08:11:43;;;;;;;10.68;2.08;;;13.70;74.00;;;;;;3927656;30;20110;-66
2022/04/05 08:14:06;;;;;;;7.57;1.88;;;13.70;74.00;;;;;;3922286;30;20048;-65
2022/04/05 08:16:29;;;;;;;4.70;1.90;;;13.70;74.00;;;;;;3926932;30;20111;-65
2022/04/05 08:18:51;;;;;;;9.27;1.70;;;13.70;74.00;;;;;;3924818;30;20058;-65
2022/04/05 08:21:17;;;;;;;8.25;1.73;;;13.70;74.00;;;;;;3926059;30;20083;-66
2022/04/05 08:23:40;;;;;;;7.65;1.70;;;13.70;74.00;;;;;;3925193;30;20051;-66
2022/04/05 08:26:04;;;;;;;7.90;1.95;;;13.70;73.90;;;;;;3914969;30;20052;-67
2022/04/05 08:28:28;;;;;;;7.60;1.63;;;13.80;74.00;;;;;;3912137;30;20416;-66
2022/04/05 08:30:51;;;;;;;7.35;2.13;;;13.70;73.90;;;;;;3928524;30;20084;-65
2022/04/05 08:33:14;;;;;;;10.07;2.50;;;13.80;74.00;;;;;;3907501;30;20525;-65
2022/04/05 08:35:37;;;;;;;10.77;1.77;;;13.70;73.90;;;;;;3910235;30;20052;-65
2022/04/05 08:38:01;;;;;;;10.38;2.13;;;13.70;73.90;;;;;;3906351;30;20048;-66
2022/04/05 08:40:26;;;;;;;8.50;2.38;;;13.70;73.90;;;;;;3897390;30;20053;-65
2022/04/05 08:42:52;;;;;;;6.70;1.70;;;13.70;73.80;;;;;;3892140;30;20071;-66
2022/04/05 08:45:17;;;;;;;9.40;1.70;;;13.80;73.90;;;;;;3899931;30;20083;-65
2022/04/05 08:47:41;;;;;;;8.77;2.08;;;13.70;73.80;;;;;;3896156;30;20060;-65
2022/04/05 08:50:06;;;;;;;12.15;1.92;;;13.70;73.90;;;;;;3890142;30;20123;-65
2022/04/05 08:52:30;;;;;;;9.63;1.80;;;13.80;73.80;;;;;;3893533;30;20455;-65
2022/04/05 08:54:53;;;;;;;8.27;2.10;;;13.80;73.80;;;;;;3889905;30;20168;-65
2022/04/05 08:57:18;;;;;;;8.13;1.65;;;13.80;73.80;;;;;;3909817;30;20061;-66
2022/04/05 08:59:41;;;;;;;12.32;2.53;;;13.80;73.70;;;;;;3914013;30;20835;-65
2022/04/05 09:02:03;;;;;;;4.97;1.75;;;13.80;73.70;;;;;;3909852;30;20376;-65
2022/04/05 09:04:25;;;;;;;7.32;1.98;;;13.80;73.50;;;;;;3894010;30;20437;-68
2022/04/05 09:06:49;;;;;;;7.65;1.63;;;13.80;73.50;;;;;;3907845;30;20049;-67
2022/04/05 09:09:14;;;;;;;11.65;1.77;;;13.80;73.80;;;;;;3914423;30;20064;-68
2022/04/05 09:11:37;;;;;;;6.50;2.33;;;13.80;73.40;;;;;;3913339;30;20129;-68
2022/04/05 09:14:03;;;;;;;8.70;2.17;;;13.80;73.40;;;;;;3911672;30;20053;-67
2022/04/05 09:16:31;;;;;;;9.43;2.00;;;13.90;73.50;;;;;;3913130;30;20084;-67
2022/04/05 09:18:59;;;;;;;9.32;1.90;;;13.80;73.40;;;;;;3913005;30;20122;-68
2022/04/05 09:21:23;;;;;;;8.27;1.95;;;13.90;73.40;;;;;;3894755;30;20087;-67
2022/04/05 09:23:47;;;;;;;8.90;2.42;;;13.90;73.40;;;;;;3912917;30;20052;-67
2022/04/05 09:26:15;;;;;;;10.05;1.80;;;13.90;73.30;;;;;;3907924;30;20057;-67
2022/04/05 09:28:40;;;;;;;5.80;1.60;;;13.90;73.30;;;;;;3907495;30;20493;-67
2022/04/05 09:31:05;;;;;;;11.82;2.45;;;13.90;73.20;;;;;;3911359;30;20060;-66
2022/04/05 09:33:34;;;;;;;8.27;2.28;;;13.90;73.20;;;;;;3919787;30;20133;-67
2022/04/05 09:36:08;;;;;;;10.73;2.03;;;13.90;73.20;;;;;;3925636;30;20048;-67
2022/04/05 09:38:31;;;;;;;9.98;2.15;;;13.90;73.60;;;;;;3925702;30;20056;-68
2022/04/05 09:40:54;;;;;;;9.60;2.55;;;13.90;73.10;;;;;;3909312;30;20130;-66
2022/04/05 09:43:25;;;;;;;7.93;1.77;;;13.90;73.10;;;;;;3887911;30;20056;-67
2022/04/05 09:45:51;;;;;;;7.03;2.25;;;13.90;73.10;;;;;;3910086;30;20060;-67
2022/04/05 09:48:23;;;;;;;6.38;1.90;;;13.90;73.10;;;;;;3910608;30;20063;-66
2022/04/05 09:51:00;;;;;;;9.05;1.65;;;13.90;73.10;;;;;;3911972;30;20143;-66
2022/04/05 09:53:25;;;;;;;10.50;2.40;;;13.90;74.00;;;;;;3897722;30;20067;-67
2022/04/05 09:55:49;;;;;;;6.10;1.65;;;13.90;73.20;;;;;;3888227;30;20140;-66
2022/04/05 09:58:13;;;;;;;13.55;2.20;;;13.90;73.20;;;;;;3891564;30;20069;-67
2022/04/05 10:00:35;;;;;;;4.85;1.60;;;13.90;73.20;;;;;;3898091;30;20795;-68
2022/04/05 10:03:01;;;;;;;5.82;1.65;;;13.90;73.30;;;;;;3897492;30;20144;-66
2022/04/05 10:05:24;;;;;;;3.45;1.70;;;13.90;73.20;;;;;;3903605;30;20357;-67
2022/04/05 10:07:47;;;;;;;4.93;1.80;;;13.90;73.30;;;;;;3926797;30;20485;-67
2022/04/05 10:10:09;;;;;;;4.15;1.73;;;13.90;73.30;;;;;;3926828;30;20052;-67
2022/04/05 10:12:37;;;;;;;4.88;1.30;;;13.90;73.30;;;;;;3911993;30;21550;-67
2022/04/05 10:15:00;;;;;;;4.25;1.73;;;13.90;73.30;;;;;;3911344;30;20052;-68
2022/04/05 10:17:26;;;;;;;5.50;1.90;;;13.90;73.30;;;;;;3911853;30;20494;-69
2022/04/05 10:19:50;;;;;;;3.88;1.63;;;13.90;73.30;;;;;;3917735;30;20105;-69
2022/04/05 10:22:16;;;;;;;3.72;1.60;;;13.90;73.40;;;;;;3926193;30;20060;-69
2022/04/05 10:24:40;;;;;;;5.38;1.75;;;13.90;73.30;;;;;;3926176;30;20067;-69
2022/04/05 10:27:05;;;;;;;3.85;1.20;;;13.90;73.40;;;;;;3926181;30;20074;-69
2022/04/05 10:29:27;;;;;;;4.70;1.45;;;13.90;73.50;;;;;;3928394;30;20522;-69
2022/04/05 10:32:03;;;;;;;7.75;1.38;;;13.90;73.40;;;;;;3918104;30;20509;-69
2022/04/05 10:34:28;;;;;;;2.28;1.13;;;13.90;73.50;;;;;;3913903;30;20582;-69
2022/04/05 10:37:09;;;;;;;3.40;1.38;;;13.90;73.50;;;;;;3914323;30;20110;-69
2022/04/05 10:39:32;;;;;;;1.10;0.93;;;13.90;73.60;;;;;;3913075;30;20560;-68
2022/04/05 10:42:16;;;;;;;1.67;1.15;;;13.90;73.60;;;;;;3900538;30;20474;-69
2022/04/05 10:44:39;;;;;;;4.15;2.08;;;13.90;73.70;;;;;;3911523;30;20079;-68
2022/04/05 10:47:04;;;;;;;4.38;1.48;;;13.90;73.70;;;;;;3912854;30;20224;-69
2022/04/05 10:49:48;;;;;;;4.35;1.45;;;13.90;73.70;;;;;;3900145;30;20061;-68
2022/04/05 10:52:13;;;;;;;2.80;1.00;;;13.90;73.90;;;;;;3913625;30;20060;-69
2022/04/05 10:54:41;;;;;;;1.35;1.10;;;14.00;74.60;;;;;;3913619;30;20571;-67
2022/04/05 10:57:21;;;;;;;1.42;0.95;;;14.40;74.30;;;;;;3901472;30;20063;-70
2022/04/05 10:59:48;;;;;;;3.25;0.85;;;15.00;70.60;;;;;;3906646;30;20071;-67
2022/04/05 11:02:28;;;;;;;2.88;0.90;;;15.70;69.00;;;;;;3913727;30;20076;-69
2022/04/05 11:04:59;;;;;;;2.30;0.77;;;16.30;65.30;;;;;;3908443;30;20448;-69
2022/04/05 11:07:22;;;;;;;0.65;0.60;;;16.90;63.10;;;;;;3912442;30;20060;-69
2022/04/05 11:10:00;;;;;;;1.40;0.73;;;17.40;61.20;;;;;;3900537;30;20056;-69
2022/04/05 11:12:25;;;;;;;1.25;0.75;;;17.80;59.90;;;;;;3912515;30;20060;-69
2022/04/05 11:14:51;;;;;;;1.85;0.95;;;18.00;59.20;;;;;;3912612;30;20076;-69
2022/04/05 11:17:15;;;;;;;1.98;1.05;;;18.10;58.90;;;;;;3921706;30;20058;-70
2022/04/05 11:19:39;;;;;;;3.28;1.23;;;18.00;59.00;;;;;;3903544;30;20052;-69
2022/04/05 11:22:04;;;;;;;1.73;0.80;;;18.00;59.10;;;;;;3913582;30;20080;-69
2022/04/05 11:24:50;;;;;;;4.20;1.13;;;17.90;59.30;;;;;;3911906;30;20421;-69
2022/04/05 11:27:31;;;;;;;1.08;1.08;;;17.80;59.70;;;;;;3913004;30;20061;-69
2022/04/05 11:30:26;;;;;;;1.33;1.00;;;17.60;60.20;;;;;;3912965;30;20049;-69
2022/04/05 11:33:45;;;;;;;1.23;1.08;;;17.40;60.60;;;;;;3903290;30;20060;-70
2022/04/05 11:36:09;;;;;;;1.88;1.17;;;17.30;61.30;;;;;;3906251;30;20460;-60
2022/04/05 11:38:33;;;;;;;4.72;0.70;;;17.10;62.10;;;;;;3923335;30;20244;-64
2022/04/05 11:41:02;;;;;;;4.60;0.93;;;17.00;63.00;;;;;;3923787;30;20048;-62
2022/04/05 11:43:28;;;;;;;0.90;0.77;;;16.90;63.80;;;;;;3907796;30;20056;-65
2022/04/05 11:45:55;;;;;;;1.50;0.63;;;16.80;64.40;;;;;;3912271;30;20088;-65
2022/04/05 11:48:19;;;;;;;1.25;0.93;;;16.70;64.90;;;;;;3916443;30;20054;-63
2022/04/05 11:50:42;;;;;;;1.55;1.10;;;16.70;65.30;;;;;;3922537;30;20153;-63
2022/04/05 11:53:22;;;;;;;0.98;0.88;;;16.60;65.70;;;;;;3920921;30;20117;-65
2022/04/05 11:56:01;;;;;;;5.43;1.52;;;16.60;66.00;;;;;;3919347;30;20524;-63
2022/04/05 11:58:30;;;;;;;1.23;0.90;;;16.60;66.20;;;;;;3922478;30;20068;-70
2022/04/05 12:00:53;;;;;;;2.42;1.10;;;16.60;66.30;;;;;;3924088;30;20109;-68
2022/04/05 12:03:16;;;;;;;1.88;0.93;;;16.60;66.40;;;;;;3924979;30;20145;-65
2022/04/05 12:05:42;;;;;;;1.50;1.00;;;16.50;66.50;;;;;;3921429;30;20507;-60
2022/04/05 12:08:05;;;;;;;4.60;1.42;;;16.60;66.60;;;;;;3921871;30;20479;-60
2022/04/05 12:10:33;;;;;;;4.50;1.00;;;16.60;66.90;;;;;;3921730;30;20063;-67
2022/04/05 12:12:57;;;;;;;2.55;0.90;;;16.50;66.80;;;;;;3922370;30;20059;-63
2022/04/05 12:15:24;;;;;;;1.40;1.30;;;16.60;67.00;;;;;;3916515;30;20055;-68
2022/04/05 12:17:47;;;;;;;1.35;1.25;;;16.60;66.80;;;;;;3922680;30;20973;-66
2022/04/05 12:20:10;;;;;;;2.63;1.40;;;16.70;66.70;;;;;;3920776;30;20433;-68
2022/04/05 12:22:37;;;;;;;1.85;1.23;;;16.70;66.40;;;;;;3924822;30;20067;-67
2022/04/05 12:25:00;;;;;;;2.08;0.95;;;16.70;66.00;;;;;;3922537;30;21564;-68
2022/04/05 12:27:24;;;;;;;2.17;1.60;;;16.80;65.90;;;;;;3924991;30;21000;-67